createdAt,value
2022-08-23T00:01:34.270Z,3.73
2022-08-23T00:04:08.960Z,3.23
2022-08-23T00:06:38.700Z,4.00
2022-08-23T00:09:06.328Z,3.77
2022-08-23T00:11:52.367Z,3.87
2022-08-23T00:14:28.801Z,3.30
2022-08-23T00:16:57.492Z,3.20
2022-08-23T00:19:25.368Z,4.13
2022-08-23T00:21:54.806Z,3.30
2022-08-23T00:24:23.498Z,3.60
2022-08-23T00:27:06.545Z,3.50
2022-08-23T00:29:38.940Z,3.50
2022-08-23T00:32:07.813Z,3.63
2022-08-23T00:34:36.280Z,3.83
2022-08-23T00:37:04.250Z,3.70
2022-08-23T00:39:32.865Z,3.70
2022-08-23T00:42:26.994Z,4.17
2022-08-23T00:45:13.392Z,3.87
2022-08-23T00:47:41.523Z,3.60
2022-08-23T00:50:23.591Z,3.73
2022-08-23T00:53:10.191Z,4.00
2022-08-23T00:55:38.168Z,4.20
2022-08-23T00:58:05.462Z,4.47
2022-08-23T01:00:34.381Z,4.20
2022-08-23T01:03:02.348Z,3.70
2022-08-23T01:05:34.862Z,4.10
2022-08-23T01:08:02.131Z,4.20
2022-08-23T01:10:39.512Z,3.90
2022-08-23T01:13:11.558Z,4.00
2022-08-23T01:15:47.833Z,4.93
2022-08-23T01:18:17.519Z,4.73
2022-08-23T01:21:10.517Z,4.87
2022-08-23T01:23:44.432Z,4.90
2022-08-23T01:26:15.631Z,4.50
2022-08-23T01:28:51.412Z,4.30
2022-08-23T01:31:19.088Z,4.10
2022-08-23T01:33:53.694Z,4.40
2022-08-23T01:36:20.750Z,3.90
2022-08-23T01:38:49.845Z,4.07
2022-08-23T01:41:17.525Z,4.40
2022-08-23T01:43:44.579Z,4.60
2022-08-23T01:46:16.727Z,4.77
2022-08-23T01:48:46.259Z,4.57
2022-08-23T01:51:16.880Z,4.97
2022-08-23T01:53:46.475Z,4.60
2022-08-23T01:56:18.056Z,4.13
2022-08-23T01:58:45.071Z,4.30
2022-08-23T02:01:12.970Z,4.70
2022-08-23T02:03:40.147Z,4.07
2022-08-23T02:06:08.418Z,4.27
2022-08-23T02:08:54.492Z,4.57
2022-08-23T02:11:26.150Z,4.70
2022-08-23T02:13:57.567Z,4.90
2022-08-23T02:16:30.474Z,4.70
2022-08-23T02:18:57.945Z,5.20
2022-08-23T02:21:25.490Z,5.10
2022-08-23T02:23:52.419Z,5.57
2022-08-23T02:26:19.560Z,5.30
2022-08-23T02:28:51.679Z,4.77
2022-08-23T02:31:23.321Z,4.53
2022-08-23T02:33:53.048Z,4.80
2022-08-23T02:38:48.648Z,5.83
2022-08-23T02:41:19.470Z,5.60
2022-08-23T02:43:46.824Z,4.90
2022-08-23T02:46:13.868Z,4.13
2022-08-23T02:48:40.882Z,4.57
2022-08-23T02:51:08.739Z,4.30
2022-08-23T02:53:36.924Z,4.50
2022-08-23T02:56:07.392Z,4.60
2022-08-23T02:58:54.477Z,4.73
2022-08-23T03:01:29.565Z,5.60
2022-08-23T03:04:02.309Z,5.27
2022-08-23T03:06:30.376Z,4.57
2022-08-23T03:08:57.981Z,4.20
2022-08-23T03:11:28.617Z,4.50
2022-08-23T03:13:56.480Z,4.60
2022-08-23T03:16:24.302Z,5.20
2022-08-23T03:18:51.673Z,4.87
2022-08-23T03:21:20.211Z,4.50
2022-08-23T03:23:49.636Z,4.30
2022-08-23T03:26:18.554Z,4.30
2022-08-23T03:28:46.297Z,4.33
2022-08-23T03:31:16.010Z,4.80
2022-08-23T03:33:59.715Z,4.30
2022-08-23T03:36:28.267Z,4.50
2022-08-23T03:38:57.325Z,4.40
2022-08-23T03:41:25.638Z,4.80
2022-08-23T03:43:53.215Z,4.47
2022-08-23T03:46:24.115Z,4.77
2022-08-23T03:48:59.632Z,4.47
2022-08-23T03:51:33.133Z,4.37
2022-08-23T03:54:02.046Z,4.90
2022-08-23T03:56:34.100Z,4.90
2022-08-23T03:59:07.968Z,4.47
2022-08-23T04:01:35.758Z,4.47
2022-08-23T04:04:03.553Z,4.43
2022-08-23T04:06:34.372Z,4.70
2022-08-23T04:09:03.699Z,4.80
2022-08-23T04:11:31.595Z,4.83
2022-08-23T04:14:04.505Z,4.70
2022-08-23T04:16:37.268Z,4.57
2022-08-23T04:19:09.054Z,4.40
2022-08-23T04:21:42.028Z,4.33
2022-08-23T04:24:09.392Z,4.80
2022-08-23T04:26:36.266Z,4.37
2022-08-23T04:29:04.303Z,5.27
2022-08-23T04:31:34.572Z,4.70
2022-08-23T04:34:04.275Z,5.00
2022-08-23T04:36:37.332Z,4.73
2022-08-23T04:39:05.531Z,4.53
2022-08-23T04:41:52.380Z,4.33
2022-08-23T04:44:24.304Z,4.43
2022-08-23T04:46:52.851Z,4.33
2022-08-23T04:49:20.074Z,4.67
2022-08-23T04:51:54.093Z,4.23
2022-08-23T04:54:23.085Z,4.30
2022-08-23T04:57:16.438Z,4.70
2022-08-23T04:59:45.467Z,4.53
2022-08-23T05:02:12.596Z,4.50
2022-08-23T05:04:39.794Z,4.73
2022-08-23T05:07:06.783Z,4.77
2022-08-23T05:09:34.334Z,5.10
2022-08-23T05:12:01.309Z,4.20
2022-08-23T05:14:30.610Z,4.77
2022-08-23T05:16:57.935Z,5.80
2022-08-23T05:19:25.827Z,5.00
2022-08-23T05:21:56.916Z,5.30
2022-08-23T05:24:34.184Z,5.30
2022-08-23T05:27:02.392Z,5.60
2022-08-23T05:29:29.865Z,6.67
2022-08-23T05:31:57.761Z,7.20
2022-08-23T05:34:28.293Z,6.93
2022-08-23T05:36:57.757Z,7.53
2022-08-23T05:39:37.066Z,8.10
2022-08-23T05:42:14.208Z,9.20
2022-08-23T05:44:43.945Z,8.23
2022-08-23T05:47:15.097Z,7.70
2022-08-23T05:50:09.256Z,6.80
2022-08-23T05:52:37.672Z,6.37
2022-08-23T05:55:05.614Z,5.40
2022-08-23T05:57:42.598Z,6.00
2022-08-23T06:00:14.273Z,5.17
2022-08-23T06:02:53.893Z,4.87
2022-08-23T06:05:21.682Z,4.53
2022-08-23T06:07:49.958Z,4.50
2022-08-23T06:10:21.563Z,4.93
2022-08-23T06:12:55.151Z,3.70
2022-08-23T06:15:22.604Z,4.00
2022-08-23T06:17:49.575Z,4.43
2022-08-23T06:20:16.780Z,4.30
2022-08-23T06:23:03.838Z,3.72
2022-08-23T06:25:32.231Z,3.70
2022-08-23T06:28:08.274Z,2.95
2022-08-23T06:30:39.861Z,3.53
2022-08-23T06:33:27.698Z,3.13
2022-08-23T06:36:33.623Z,3.47
2022-08-23T06:39:12.351Z,3.13
2022-08-23T06:42:37.345Z,3.25
2022-08-23T06:45:03.752Z,2.97
2022-08-23T06:47:40.236Z,2.70
2022-08-23T06:50:07.743Z,3.30
2022-08-23T06:52:54.260Z,3.33
2022-08-23T06:55:42.757Z,2.95
2022-08-23T06:58:21.107Z,3.20
2022-08-23T07:01:51.037Z,3.08
2022-08-23T07:04:30.738Z,3.50
2022-08-23T07:07:21.709Z,3.30
2022-08-23T07:09:48.678Z,2.95
2022-08-23T07:12:19.803Z,3.28
2022-08-23T07:14:47.375Z,3.00
2022-08-23T07:17:20.979Z,3.25
2022-08-23T07:19:49.193Z,3.45
2022-08-23T07:22:16.468Z,2.97
2022-08-23T07:24:43.562Z,2.90
2022-08-23T07:27:11.825Z,2.58
2022-08-23T07:29:58.489Z,3.00
2022-08-23T07:32:25.673Z,2.85
2022-08-23T07:34:57.100Z,2.80
2022-08-23T07:37:24.644Z,3.25
2022-08-23T07:39:52.336Z,2.88
2022-08-23T07:42:26.770Z,2.85
2022-08-23T07:44:55.543Z,2.70
2022-08-23T07:47:28.609Z,3.38
2022-08-23T07:49:57.409Z,3.17
2022-08-23T07:52:25.378Z,2.40
2022-08-23T07:54:53.317Z,3.00
2022-08-23T07:57:35.343Z,3.22
2022-08-23T08:00:21.120Z,2.67
2022-08-23T08:03:05.419Z,2.97
2022-08-23T08:05:57.657Z,3.30
2022-08-23T08:08:24.889Z,3.20
2022-08-23T08:10:54.442Z,3.17
2022-08-23T08:13:21.553Z,3.15
2022-08-23T08:15:49.032Z,2.65
2022-08-23T08:18:17.406Z,2.55
2022-08-23T08:21:05.084Z,3.40
2022-08-23T08:24:04.983Z,3.10
2022-08-23T08:26:44.142Z,3.15
2022-08-23T08:29:12.137Z,3.30
2022-08-23T08:31:42.800Z,2.75
2022-08-23T08:34:10.647Z,3.00
2022-08-23T08:36:52.026Z,3.10
2022-08-23T08:39:25.737Z,3.35
2022-08-23T08:42:20.853Z,3.25
2022-08-23T08:44:47.869Z,3.25
2022-08-23T08:47:22.798Z,3.38
2022-08-23T08:50:03.806Z,3.40
2022-08-23T08:52:36.829Z,3.25
2022-08-23T08:55:14.369Z,3.50
2022-08-23T08:57:46.796Z,3.65
2022-08-23T09:00:23.523Z,3.40
2022-08-23T09:02:51.128Z,3.70
2022-08-23T09:05:31.660Z,3.25
2022-08-23T09:08:10.969Z,3.30
2022-08-23T09:11:09.106Z,3.63
2022-08-23T09:13:55.955Z,3.40
2022-08-23T09:16:30.702Z,3.72
2022-08-23T09:18:57.901Z,3.55
2022-08-23T09:21:24.963Z,3.30
2022-08-23T09:24:00.539Z,3.58
2022-08-23T09:26:40.662Z,3.80
2022-08-23T09:29:18.045Z,3.30
2022-08-23T09:31:52.883Z,3.33
2022-08-23T09:34:37.149Z,3.50
2022-08-23T09:37:16.301Z,3.10
2022-08-23T09:40:05.253Z,3.63
2022-08-23T09:42:36.601Z,3.40
2022-08-23T09:45:36.025Z,3.03
2022-08-23T09:48:06.837Z,3.13
2022-08-23T09:50:47.794Z,3.10
2022-08-23T09:53:16.305Z,3.05
2022-08-23T09:55:50.605Z,3.00
2022-08-23T09:58:34.629Z,2.70
2022-08-23T10:01:17.712Z,3.08
2022-08-23T10:04:12.674Z,3.63
2022-08-23T10:06:41.883Z,3.85
2022-08-23T10:09:09.949Z,3.60
2022-08-23T10:11:46.431Z,2.95
2022-08-23T10:14:15.904Z,3.58
2022-08-23T10:17:08.173Z,3.25
2022-08-23T10:19:49.130Z,3.38
2022-08-23T10:22:24.183Z,3.35
2022-08-23T10:25:22.170Z,3.47
2022-08-23T10:28:22.504Z,3.00
2022-08-23T10:31:20.659Z,3.00
2022-08-23T10:34:12.519Z,3.33
2022-08-23T10:37:15.019Z,2.97
2022-08-23T10:40:03.659Z,3.05
2022-08-23T10:42:51.517Z,2.92
2022-08-23T10:45:27.694Z,2.70
2022-08-23T10:48:29.711Z,2.95
2022-08-23T10:51:19.904Z,5.80
2022-08-23T10:54:00.114Z,4.40
2022-08-23T10:56:28.625Z,2.38
2022-08-23T10:59:15.093Z,2.60
2022-08-23T11:02:07.566Z,2.38
2022-08-23T11:04:47.478Z,2.28
2022-08-23T11:07:33.491Z,2.85
2022-08-23T11:10:56.769Z,3.03
2022-08-23T11:13:30.810Z,2.50
2022-08-23T11:16:01.811Z,2.50
2022-08-23T11:18:44.504Z,2.30
2022-08-23T11:21:26.187Z,2.75
2022-08-23T11:24:01.853Z,2.90
2022-08-23T11:26:36.140Z,2.20
2022-08-23T11:29:05.980Z,3.90
2022-08-23T11:31:58.421Z,2.20
2022-08-23T11:34:29.993Z,2.42
2022-08-23T11:37:20.088Z,3.50
2022-08-23T11:40:03.285Z,3.30
2022-08-23T11:42:40.239Z,2.60
2022-08-23T11:45:33.409Z,2.50
2022-08-23T11:48:22.712Z,2.85
2022-08-23T11:51:14.690Z,2.60
2022-08-23T11:54:12.117Z,2.25
2022-08-23T11:56:48.717Z,2.50
2022-08-23T11:59:43.040Z,2.28
2022-08-23T12:02:33.026Z,3.30
2022-08-23T12:05:02.665Z,2.92
2022-08-23T12:07:55.896Z,2.22
2022-08-23T12:10:42.662Z,2.33
2022-08-23T12:13:20.327Z,2.10
2022-08-23T12:16:14.768Z,2.22
2022-08-23T12:18:51.112Z,2.50
2022-08-23T12:21:22.908Z,2.80
2022-08-23T12:23:56.127Z,2.45
2022-08-23T12:26:47.318Z,2.15
2022-08-23T12:29:24.708Z,2.58
2022-08-23T12:31:58.673Z,2.20
2022-08-23T12:34:47.710Z,2.50
2022-08-23T12:37:20.617Z,1.90
2022-08-23T12:39:57.612Z,2.30
2022-08-23T12:42:35.972Z,3.17
2022-08-23T12:45:20.036Z,2.80
2022-08-23T12:47:59.914Z,2.60
2022-08-23T12:50:33.378Z,3.00
2022-08-23T12:53:03.954Z,2.47
2022-08-23T12:55:39.719Z,2.90
2022-08-23T12:58:07.784Z,2.78
2022-08-23T13:00:40.061Z,2.50
2022-08-23T13:03:19.777Z,2.95
2022-08-23T13:05:52.777Z,2.63
2022-08-23T13:08:33.589Z,3.10
2022-08-23T13:11:07.332Z,2.60
2022-08-23T13:13:37.953Z,2.92
2022-08-23T13:16:29.724Z,3.80
2022-08-23T13:19:23.425Z,2.80
2022-08-23T13:22:23.722Z,2.60
2022-08-23T13:25:06.000Z,2.80
2022-08-23T13:27:47.784Z,3.10
2022-08-23T13:30:14.586Z,2.28
2022-08-23T13:32:43.380Z,2.17
2022-08-23T13:35:39.410Z,2.60
2022-08-23T13:38:21.222Z,2.50
2022-08-23T13:41:08.907Z,2.58
2022-08-23T13:43:45.036Z,2.17
2022-08-23T13:46:29.952Z,2.55
2022-08-23T13:49:10.340Z,2.17
2022-08-23T13:51:39.750Z,2.30
2022-08-23T13:54:10.826Z,2.47
2022-08-23T13:56:48.775Z,2.17
2022-08-23T13:59:31.071Z,1.98
2022-08-23T14:02:06.368Z,3.15
2022-08-23T14:04:35.074Z,2.95
2022-08-23T14:07:02.002Z,2.40
2022-08-23T14:09:28.909Z,2.38
2022-08-23T14:11:58.810Z,1.90
2022-08-23T14:14:29.638Z,1.95
2022-08-23T14:17:00.845Z,3.05
2022-08-23T14:22:19.733Z,3.95
2022-08-23T14:24:48.327Z,3.55
2022-08-23T14:27:15.396Z,2.30
2022-08-23T14:29:42.285Z,1.83
2022-08-23T14:32:09.235Z,2.40
2022-08-23T14:34:36.249Z,1.98
2022-08-23T14:39:51.272Z,1.90
2022-08-23T14:42:20.851Z,1.83
2022-08-23T14:44:48.092Z,2.10
2022-08-23T14:47:15.776Z,3.00
2022-08-23T14:49:42.632Z,2.40
2022-08-23T14:52:09.428Z,2.33
2022-08-23T14:54:36.357Z,2.15
2022-08-23T14:57:04.948Z,2.53
2022-08-23T14:59:31.966Z,2.22
2022-08-23T15:01:59.182Z,2.20
2022-08-23T15:04:34.096Z,1.80
2022-08-23T15:07:19.686Z,3.25
2022-08-23T15:09:48.626Z,2.90
2022-08-23T15:15:09.471Z,2.50
2022-08-23T15:17:49.192Z,2.42
2022-08-23T15:20:16.152Z,2.20
2022-08-23T15:22:45.134Z,2.28
2022-08-23T15:25:23.229Z,2.35
2022-08-23T15:27:51.439Z,2.90
2022-08-23T15:30:18.506Z,4.68
2022-08-23T15:32:52.580Z,3.40
2022-08-23T15:35:34.748Z,3.55
2022-08-23T15:38:02.172Z,4.18
2022-08-23T15:40:29.126Z,3.22
2022-08-23T15:42:56.360Z,2.90
2022-08-23T15:45:23.271Z,3.83
2022-08-23T15:47:55.812Z,2.85
2022-08-23T15:50:25.987Z,3.95
2022-08-23T15:52:54.412Z,2.47
2022-08-23T15:55:21.810Z,3.00
2022-08-23T15:57:52.083Z,2.55
2022-08-23T16:00:21.764Z,3.05
2022-08-23T16:03:18.976Z,2.63
2022-08-23T16:05:39.208Z,2.75
2022-08-23T16:08:07.809Z,2.17
2022-08-23T16:10:35.512Z,1.85
2022-08-23T16:13:04.864Z,2.65
2022-08-23T16:15:31.995Z,3.10
2022-08-23T16:17:59.092Z,2.00
2022-08-23T16:20:26.306Z,2.33
2022-08-23T16:22:53.164Z,2.47
2022-08-23T16:25:23.523Z,5.10
2022-08-23T16:27:50.642Z,2.90
2022-08-23T16:30:17.907Z,2.43
2022-08-23T16:32:44.900Z,1.80
2022-08-23T16:35:11.858Z,1.90
2022-08-23T16:37:38.811Z,2.50
2022-08-23T16:40:08.062Z,1.93
2022-08-23T16:42:35.856Z,3.20
2022-08-23T16:45:02.829Z,2.40
2022-08-23T16:47:32.528Z,1.77
2022-08-23T16:49:59.446Z,2.70
2022-08-23T16:52:34.417Z,3.53
2022-08-23T16:55:08.036Z,3.53
2022-08-23T16:57:35.377Z,2.40
2022-08-23T17:00:06.810Z,3.00
2022-08-23T17:02:39.072Z,4.13
2022-08-23T17:05:10.214Z,2.67
2022-08-23T17:07:37.847Z,2.87
2022-08-23T17:10:06.162Z,2.50
2022-08-23T17:12:35.832Z,2.67
2022-08-23T17:15:05.047Z,2.20
2022-08-23T17:17:32.545Z,2.57
2022-08-23T17:19:59.411Z,2.20
2022-08-23T17:22:26.273Z,2.27
2022-08-23T17:24:53.235Z,1.93
2022-08-23T17:27:20.320Z,2.90
2022-08-23T17:29:47.332Z,2.17
2022-08-23T17:32:14.539Z,2.40
2022-08-23T17:34:41.952Z,1.53
2022-08-23T17:37:20.465Z,1.60
2022-08-23T17:39:49.440Z,2.07
2022-08-23T17:42:17.625Z,2.10
2022-08-23T17:44:45.925Z,1.70
2022-08-23T17:47:15.913Z,2.10
2022-08-23T17:49:44.829Z,1.43
2022-08-23T17:52:12.290Z,8.00
2022-08-23T17:54:40.360Z,12.67
2022-08-23T17:57:10.521Z,11.43
2022-08-23T17:59:37.961Z,4.57
2022-08-23T18:02:05.475Z,3.07
2022-08-23T18:04:32.549Z,2.20
2022-08-23T18:06:59.987Z,2.10
2022-08-23T18:09:28.478Z,1.90
2022-08-23T18:11:55.436Z,2.20
2022-08-23T18:14:23.856Z,2.23
2022-08-23T18:16:51.502Z,2.53
2022-08-23T18:19:18.349Z,2.30
2022-08-23T18:21:46.605Z,2.23
2022-08-23T18:24:13.727Z,3.00
2022-08-23T18:26:59.881Z,2.53
2022-08-23T18:29:30.196Z,2.63
2022-08-23T18:31:57.347Z,2.00
2022-08-23T18:34:27.670Z,2.10
2022-08-23T18:36:54.723Z,2.53
2022-08-23T18:39:27.614Z,2.97
2022-08-23T18:42:08.577Z,2.20
2022-08-23T18:44:35.373Z,2.50
2022-08-23T18:47:03.219Z,2.50
2022-08-23T18:49:31.894Z,2.33
2022-08-23T18:51:59.517Z,2.17
2022-08-23T18:54:33.509Z,2.53
2022-08-23T18:57:01.319Z,2.70
2022-08-23T18:59:28.281Z,2.50
2022-08-23T19:01:58.481Z,2.40
2022-08-23T19:04:27.900Z,3.07
2022-08-23T19:06:54.717Z,3.53
2022-08-23T19:09:21.639Z,4.13
2022-08-23T19:11:48.798Z,3.43
2022-08-23T19:14:16.141Z,3.27
2022-08-23T19:16:47.961Z,2.60
2022-08-23T19:19:18.754Z,2.53
2022-08-23T19:21:45.676Z,3.03
2022-08-23T19:24:12.554Z,3.13
2022-08-23T19:26:42.071Z,2.50
2022-08-23T19:29:09.133Z,2.83
2022-08-23T19:31:41.750Z,3.47
2022-08-23T19:34:10.087Z,3.40
2022-08-23T19:36:46.282Z,2.60
2022-08-23T19:39:17.021Z,3.13
2022-08-23T19:41:48.521Z,3.50
2022-08-23T19:44:17.582Z,7.77
2022-08-23T19:46:45.324Z,13.00
2022-08-23T19:49:13.234Z,7.80
2022-08-23T19:51:41.698Z,6.13
2022-08-23T19:54:11.463Z,4.70
2022-08-23T19:56:52.464Z,3.80
2022-08-23T19:59:21.969Z,4.10
2022-08-23T20:01:49.824Z,4.30
2022-08-23T20:04:18.199Z,4.47
2022-08-23T20:06:45.786Z,4.63
2022-08-23T20:09:12.785Z,4.50
2022-08-23T20:11:39.808Z,3.43
2022-08-23T20:14:07.567Z,3.60
2022-08-23T20:16:35.041Z,3.87
2022-08-23T20:19:03.195Z,3.83
2022-08-23T20:21:30.020Z,4.03
2022-08-23T20:24:03.666Z,3.77
2022-08-23T20:26:31.637Z,3.47
2022-08-23T20:29:00.377Z,4.30
2022-08-23T20:31:36.513Z,4.63
2022-08-23T20:34:05.054Z,4.13
2022-08-23T20:36:33.300Z,3.83
2022-08-23T20:39:01.384Z,3.53
2022-08-23T20:41:33.331Z,3.50
2022-08-23T20:44:00.646Z,2.90
2022-08-23T20:46:27.851Z,3.90
2022-08-23T20:48:57.519Z,3.70
2022-08-23T20:51:25.653Z,3.20
2022-08-23T20:53:53.587Z,4.10
2022-08-23T20:56:23.655Z,5.23
2022-08-23T20:58:51.511Z,2.90
2022-08-23T21:01:18.704Z,3.37
2022-08-23T21:03:45.737Z,3.70
2022-08-23T21:06:46.187Z,3.13
2022-08-23T21:09:17.043Z,2.93
2022-08-23T21:11:46.255Z,2.93
2022-08-23T21:14:15.224Z,3.10
2022-08-23T21:16:43.727Z,2.80
2022-08-23T21:19:10.599Z,3.00
2022-08-23T21:21:41.443Z,2.53
2022-08-23T21:24:11.290Z,3.33
2022-08-23T21:26:38.714Z,3.13
2022-08-23T21:29:08.867Z,3.20
2022-08-23T21:31:36.760Z,3.10
2022-08-23T21:34:04.792Z,3.07
2022-08-23T21:36:31.857Z,3.30
2022-08-23T21:38:58.827Z,3.30
2022-08-23T21:41:35.206Z,3.30
2022-08-23T21:44:03.337Z,3.23
2022-08-23T21:46:30.223Z,3.27
2022-08-23T21:48:58.002Z,3.80
2022-08-23T21:51:25.154Z,3.07
2022-08-23T21:53:52.003Z,2.83
2022-08-23T21:56:19.230Z,3.00
2022-08-23T21:58:46.200Z,3.00
2022-08-23T22:01:18.658Z,3.10
2022-08-23T22:03:45.731Z,3.03
2022-08-23T22:06:14.811Z,3.90
2022-08-23T22:08:42.132Z,2.97
2022-08-23T22:11:12.513Z,3.27
2022-08-23T22:13:40.094Z,3.10
2022-08-23T22:16:07.395Z,3.50
2022-08-23T22:18:34.811Z,3.17
2022-08-23T22:21:05.982Z,2.70
2022-08-23T22:23:33.370Z,2.70
2022-08-23T22:26:01.500Z,3.10
2022-08-23T22:28:31.267Z,3.07
2022-08-23T22:31:01.359Z,2.87
2022-08-23T22:33:28.450Z,3.20
2022-08-23T22:35:55.997Z,3.20
2022-08-23T22:38:22.820Z,3.20
2022-08-23T22:40:51.435Z,3.10
2022-08-23T22:43:22.640Z,3.30
2022-08-23T22:45:55.291Z,3.10
2022-08-23T22:48:23.726Z,2.90
2022-08-23T22:50:50.878Z,3.00
2022-08-23T22:53:19.229Z,2.63
2022-08-23T22:55:50.693Z,2.73
2022-08-23T22:58:17.672Z,2.90
2022-08-23T23:00:44.693Z,2.60
2022-08-23T23:03:11.536Z,3.00
2022-08-23T23:05:38.486Z,3.13
2022-08-23T23:08:25.960Z,2.30
2022-08-23T23:10:57.386Z,2.80
2022-08-23T23:13:27.260Z,2.80
2022-08-23T23:15:54.685Z,2.53
2022-08-23T23:18:22.119Z,2.27
2022-08-23T23:20:49.885Z,2.63
2022-08-23T23:23:20.991Z,3.07
2022-08-23T23:25:48.494Z,2.73
2022-08-23T23:28:16.417Z,2.87
2022-08-23T23:30:45.376Z,2.67
2022-08-23T23:33:13.355Z,2.50
2022-08-23T23:35:42.989Z,2.57
2022-08-23T23:38:10.268Z,2.47
2022-08-23T23:40:38.676Z,2.70
2022-08-23T23:43:05.784Z,2.60
2022-08-23T23:45:37.038Z,2.40
2022-08-23T23:48:04.071Z,2.43
2022-08-23T23:50:36.199Z,2.70
2022-08-23T23:53:03.067Z,2.33
2022-08-23T23:55:30.633Z,2.67
2022-08-23T23:58:00.858Z,2.87
